sensor_id;sensor_type;location;lat;lon;timestamp;P1;durP1;ratioP1;P2;durP2;ratioP2
4290;SDS011;2159;50.906;7.152;2023-02-15T00:01:33;30.57;;;16.80;;
4290;SDS011;2159;50.906;7.152;2023-02-15T00:04:00;28.50;;;16.30;;
4290;SDS011;2159;50.906;7.152;2023-02-15T00:06:29;29.70;;;16.37;;
4290;SDS011;2159;50.906;7.152;2023-02-15T00:08:57;30.30;;;16.33;;
4290;SDS011;2159;50.906;7.152;2023-02-15T00:11:25;28.80;;;16.10;;
4290;SDS011;2159;50.906;7.152;2023-02-15T00:14:09;29.03;;;16.40;;
4290;SDS011;2159;50.906;7.152;2023-02-15T00:16:37;27.20;;;15.80;;
4290;SDS011;2159;50.906;7.152;2023-02-15T00:19:05;28.07;;;16.03;;
4290;SDS011;2159;50.906;7.152;2023-02-15T00:21:34;29.17;;;16.17;;
4290;SDS011;2159;50.906;7.152;2023-02-15T00:24:02;27.47;;;16.10;;
4290;SDS011;2159;50.906;7.152;2023-02-15T00:26:30;27.50;;;15.90;;
4290;SDS011;2159;50.906;7.152;2023-02-15T00:28:58;27.97;;;16.13;;
4290;SDS011;2159;50.906;7.152;2023-02-15T00:31:26;26.40;;;15.60;;
4290;SDS011;2159;50.906;7.152;2023-02-15T00:33:54;26.77;;;15.17;;
4290;SDS011;2159;50.906;7.152;2023-02-15T00:36:21;27.53;;;15.97;;
4290;SDS011;2159;50.906;7.152;2023-02-15T00:38:50;27.73;;;14.87;;
4290;SDS011;2159;50.906;7.152;2023-02-15T00:41:17;28.10;;;15.50;;
4290;SDS011;2159;50.906;7.152;2023-02-15T00:43:45;30.40;;;16.17;;
4290;SDS011;2159;50.906;7.152;2023-02-15T00:46:12;26.80;;;15.10;;
4290;SDS011;2159;50.906;7.152;2023-02-15T00:48:39;26.27;;;15.17;;
4290;SDS011;2159;50.906;7.152;2023-02-15T00:51:07;28.37;;;16.20;;
4290;SDS011;2159;50.906;7.152;2023-02-15T00:53:34;28.90;;;15.70;;
4290;SDS011;2159;50.906;7.152;2023-02-15T00:56:03;25.60;;;14.97;;
4290;SDS011;2159;50.906;7.152;2023-02-15T00:58:31;28.30;;;15.37;;
4290;SDS011;2159;50.906;7.152;2023-02-15T01:01:02;23.53;;;14.67;;
4290;SDS011;2159;50.906;7.152;2023-02-15T01:03:30;27.93;;;15.90;;
4290;SDS011;2159;50.906;7.152;2023-02-15T01:05:57;25.67;;;14.63;;
4290;SDS011;2159;50.906;7.152;2023-02-15T01:08:25;26.20;;;14.97;;
4290;SDS011;2159;50.906;7.152;2023-02-15T01:10:53;27.17;;;15.33;;
4290;SDS011;2159;50.906;7.152;2023-02-15T01:13:21;27.23;;;15.27;;
4290;SDS011;2159;50.906;7.152;2023-02-15T01:15:52;23.70;;;14.00;;
4290;SDS011;2159;50.906;7.152;2023-02-15T01:18:20;28.97;;;15.57;;
4290;SDS011;2159;50.906;7.152;2023-02-15T01:20:48;24.67;;;14.43;;
4290;SDS011;2159;50.906;7.152;2023-02-15T01:23:15;26.30;;;15.10;;
4290;SDS011;2159;50.906;7.152;2023-02-15T01:25:42;25.93;;;15.07;;
4290;SDS011;2159;50.906;7.152;2023-02-15T01:28:10;28.27;;;15.53;;
4290;SDS011;2159;50.906;7.152;2023-02-15T01:30:39;26.80;;;15.47;;
4290;SDS011;2159;50.906;7.152;2023-02-15T01:33:06;24.73;;;14.40;;
4290;SDS011;2159;50.906;7.152;2023-02-15T01:35:37;26.13;;;15.23;;
4290;SDS011;2159;50.906;7.152;2023-02-15T01:38:05;24.50;;;14.67;;
4290;SDS011;2159;50.906;7.152;2023-02-15T01:40:32;28.10;;;15.30;;
4290;SDS011;2159;50.906;7.152;2023-02-15T01:42:59;26.37;;;15.33;;
4290;SDS011;2159;50.906;7.152;2023-02-15T01:45:27;25.53;;;15.10;;
4290;SDS011;2159;50.906;7.152;2023-02-15T01:47:58;26.77;;;15.10;;
4290;SDS011;2159;50.906;7.152;2023-02-15T01:50:29;25.53;;;15.37;;
4290;SDS011;2159;50.906;7.152;2023-02-15T01:52:58;24.30;;;15.00;;
4290;SDS011;2159;50.906;7.152;2023-02-15T01:55:30;25.13;;;15.40;;
4290;SDS011;2159;50.906;7.152;2023-02-15T01:57:59;26.57;;;14.57;;
4290;SDS011;2159;50.906;7.152;2023-02-15T02:00:27;24.90;;;14.40;;
4290;SDS011;2159;50.906;7.152;2023-02-15T02:02:56;27.50;;;15.33;;
4290;SDS011;2159;50.906;7.152;2023-02-15T02:05:24;28.47;;;14.80;;
4290;SDS011;2159;50.906;7.152;2023-02-15T02:07:52;25.13;;;14.67;;
4290;SDS011;2159;50.906;7.152;2023-02-15T02:10:22;24.17;;;14.33;;
4290;SDS011;2159;50.906;7.152;2023-02-15T02:12:50;24.70;;;14.77;;
4290;SDS011;2159;50.906;7.152;2023-02-15T02:15:19;28.13;;;15.40;;
4290;SDS011;2159;50.906;7.152;2023-02-15T02:17:53;22.73;;;13.20;;
4290;SDS011;2159;50.906;7.152;2023-02-15T02:20:28;27.17;;;15.83;;
4290;SDS011;2159;50.906;7.152;2023-02-15T02:25:52;27.80;;;15.37;;
4290;SDS011;2159;50.906;7.152;2023-02-15T02:28:40;25.57;;;14.87;;
4290;SDS011;2159;50.906;7.152;2023-02-15T02:31:15;26.90;;;14.20;;
4290;SDS011;2159;50.906;7.152;2023-02-15T02:33:50;25.93;;;14.57;;
4290;SDS011;2159;50.906;7.152;2023-02-15T02:36:22;23.83;;;14.17;;
4290;SDS011;2159;50.906;7.152;2023-02-15T02:38:58;25.47;;;15.00;;
4290;SDS011;2159;50.906;7.152;2023-02-15T02:41:30;22.63;;;14.27;;
4290;SDS011;2159;50.906;7.152;2023-02-15T02:44:01;26.20;;;14.77;;
4290;SDS011;2159;50.906;7.152;2023-02-15T02:46:31;26.53;;;14.63;;
4290;SDS011;2159;50.906;7.152;2023-02-15T02:49:02;24.00;;;13.80;;
4290;SDS011;2159;50.906;7.152;2023-02-15T02:51:29;24.20;;;14.23;;
4290;SDS011;2159;50.906;7.152;2023-02-15T02:53:58;23.53;;;13.67;;
4290;SDS011;2159;50.906;7.152;2023-02-15T02:56:27;26.40;;;14.77;;
4290;SDS011;2159;50.906;7.152;2023-02-15T02:58:56;25.70;;;14.50;;
4290;SDS011;2159;50.906;7.152;2023-02-15T03:01:27;26.47;;;15.03;;
4290;SDS011;2159;50.906;7.152;2023-02-15T03:03:57;25.90;;;13.70;;
4290;SDS011;2159;50.906;7.152;2023-02-15T03:06:30;23.30;;;13.90;;
4290;SDS011;2159;50.906;7.152;2023-02-15T03:09:01;24.70;;;14.13;;
4290;SDS011;2159;50.906;7.152;2023-02-15T03:11:30;26.17;;;14.30;;
4290;SDS011;2159;50.906;7.152;2023-02-15T03:13:58;23.37;;;13.67;;
4290;SDS011;2159;50.906;7.152;2023-02-15T03:16:25;22.60;;;13.27;;
4290;SDS011;2159;50.906;7.152;2023-02-15T03:18:54;24.53;;;14.30;;
4290;SDS011;2159;50.906;7.152;2023-02-15T03:21:26;22.80;;;13.60;;
4290;SDS011;2159;50.906;7.152;2023-02-15T03:23:56;25.30;;;14.03;;
4290;SDS011;2159;50.906;7.152;2023-02-15T03:26:25;23.37;;;13.50;;
4290;SDS011;2159;50.906;7.152;2023-02-15T03:28:54;24.17;;;14.53;;
4290;SDS011;2159;50.906;7.152;2023-02-15T03:31:23;25.90;;;13.90;;
4290;SDS011;2159;50.906;7.152;2023-02-15T03:33:54;24.43;;;13.83;;
4290;SDS011;2159;50.906;7.152;2023-02-15T03:36:22;23.70;;;13.40;;
4290;SDS011;2159;50.906;7.152;2023-02-15T03:38:55;25.77;;;15.07;;
4290;SDS011;2159;50.906;7.152;2023-02-15T03:41:28;24.50;;;14.07;;
4290;SDS011;2159;50.906;7.152;2023-02-15T03:43:59;24.23;;;14.33;;
4290;SDS011;2159;50.906;7.152;2023-02-15T03:46:31;25.60;;;13.80;;
4290;SDS011;2159;50.906;7.152;2023-02-15T03:49:01;23.33;;;13.40;;
4290;SDS011;2159;50.906;7.152;2023-02-15T03:51:29;22.27;;;13.10;;
4290;SDS011;2159;50.906;7.152;2023-02-15T03:54:03;24.00;;;13.40;;
4290;SDS011;2159;50.906;7.152;2023-02-15T03:56:32;25.20;;;13.90;;
4290;SDS011;2159;50.906;7.152;2023-02-15T03:59:00;21.77;;;12.97;;
4290;SDS011;2159;50.906;7.152;2023-02-15T04:01:47;25.00;;;14.17;;
4290;SDS011;2159;50.906;7.152;2023-02-15T04:04:32;24.20;;;13.00;;
4290;SDS011;2159;50.906;7.152;2023-02-15T04:07:00;23.77;;;13.90;;
4290;SDS011;2159;50.906;7.152;2023-02-15T04:09:28;22.20;;;13.03;;
4290;SDS011;2159;50.906;7.152;2023-02-15T04:12:14;25.53;;;14.03;;
4290;SDS011;2159;50.906;7.152;2023-02-15T04:14:42;26.30;;;13.40;;
4290;SDS011;2159;50.906;7.152;2023-02-15T04:17:28;23.20;;;12.70;;
4290;SDS011;2159;50.906;7.152;2023-02-15T04:19:55;24.27;;;13.67;;
4290;SDS011;2159;50.906;7.152;2023-02-15T04:22:40;23.50;;;13.20;;
4290;SDS011;2159;50.906;7.152;2023-02-15T04:25:25;24.00;;;13.90;;
4290;SDS011;2159;50.906;7.152;2023-02-15T04:27:54;24.43;;;14.07;;
4290;SDS011;2159;50.906;7.152;2023-02-15T04:30:22;25.40;;;14.10;;
4290;SDS011;2159;50.906;7.152;2023-02-15T04:32:50;22.20;;;13.03;;
4290;SDS011;2159;50.906;7.152;2023-02-15T04:35:18;23.13;;;13.33;;
4290;SDS011;2159;50.906;7.152;2023-02-15T04:37:45;20.63;;;12.43;;
4290;SDS011;2159;50.906;7.152;2023-02-15T04:40:13;22.13;;;12.60;;
4290;SDS011;2159;50.906;7.152;2023-02-15T04:42:45;23.00;;;12.60;;
4290;SDS011;2159;50.906;7.152;2023-02-15T04:45:15;21.97;;;12.80;;
4290;SDS011;2159;50.906;7.152;2023-02-15T04:47:43;24.20;;;12.67;;
4290;SDS011;2159;50.906;7.152;2023-02-15T04:50:10;21.60;;;12.70;;
4290;SDS011;2159;50.906;7.152;2023-02-15T04:52:38;23.27;;;13.20;;
4290;SDS011;2159;50.906;7.152;2023-02-15T04:55:06;20.90;;;12.00;;
4290;SDS011;2159;50.906;7.152;2023-02-15T04:57:34;23.57;;;13.20;;
4290;SDS011;2159;50.906;7.152;2023-02-15T05:00:01;24.20;;;13.10;;
4290;SDS011;2159;50.906;7.152;2023-02-15T05:02:31;22.33;;;13.00;;
4290;SDS011;2159;50.906;7.152;2023-02-15T05:04:58;23.00;;;12.87;;
4290;SDS011;2159;50.906;7.152;2023-02-15T05:07:25;22.50;;;12.40;;
4290;SDS011;2159;50.906;7.152;2023-02-15T05:09:53;23.33;;;13.10;;
4290;SDS011;2159;50.906;7.152;2023-02-15T05:12:20;22.87;;;12.80;;
4290;SDS011;2159;50.906;7.152;2023-02-15T05:14:48;23.00;;;12.07;;
4290;SDS011;2159;50.906;7.152;2023-02-15T05:17:15;22.53;;;12.40;;
4290;SDS011;2159;50.906;7.152;2023-02-15T05:19:44;24.90;;;13.77;;
4290;SDS011;2159;50.906;7.152;2023-02-15T05:22:12;24.17;;;13.23;;
4290;SDS011;2159;50.906;7.152;2023-02-15T05:24:39;23.50;;;12.63;;
4290;SDS011;2159;50.906;7.152;2023-02-15T05:27:24;22.47;;;12.53;;
4290;SDS011;2159;50.906;7.152;2023-02-15T05:30:10;25.00;;;13.20;;
4290;SDS011;2159;50.906;7.152;2023-02-15T05:32:38;23.70;;;12.23;;
4290;SDS011;2159;50.906;7.152;2023-02-15T05:35:07;20.53;;;11.23;;
4290;SDS011;2159;50.906;7.152;2023-02-15T05:37:34;20.93;;;11.93;;
4290;SDS011;2159;50.906;7.152;2023-02-15T05:40:02;20.90;;;11.87;;
4290;SDS011;2159;50.906;7.152;2023-02-15T05:42:29;21.53;;;12.47;;
4290;SDS011;2159;50.906;7.152;2023-02-15T05:44:57;22.57;;;12.93;;
4290;SDS011;2159;50.906;7.152;2023-02-15T05:47:24;20.70;;;12.10;;
4290;SDS011;2159;50.906;7.152;2023-02-15T05:49:52;20.70;;;12.33;;
4290;SDS011;2159;50.906;7.152;2023-02-15T05:52:21;21.27;;;12.20;;
4290;SDS011;2159;50.906;7.152;2023-02-15T05:54:48;21.33;;;12.47;;
4290;SDS011;2159;50.906;7.152;2023-02-15T05:57:16;24.90;;;14.37;;
4290;SDS011;2159;50.906;7.152;2023-02-15T05:59:43;26.50;;;13.50;;
4290;SDS011;2159;50.906;7.152;2023-02-15T06:02:10;25.23;;;13.37;;
4290;SDS011;2159;50.906;7.152;2023-02-15T06:04:39;21.17;;;12.33;;
4290;SDS011;2159;50.906;7.152;2023-02-15T06:07:06;23.53;;;12.47;;
4290;SDS011;2159;50.906;7.152;2023-02-15T06:09:35;18.73;;;11.83;;
4290;SDS011;2159;50.906;7.152;2023-02-15T06:12:03;19.20;;;11.70;;
4290;SDS011;2159;50.906;7.152;2023-02-15T06:14:30;20.60;;;11.87;;
4290;SDS011;2159;50.906;7.152;2023-02-15T06:16:57;18.80;;;11.73;;
4290;SDS011;2159;50.906;7.152;2023-02-15T06:19:25;21.27;;;11.70;;
4290;SDS011;2159;50.906;7.152;2023-02-15T06:21:52;21.50;;;11.93;;
4290;SDS011;2159;50.906;7.152;2023-02-15T06:24:20;23.37;;;11.97;;
4290;SDS011;2159;50.906;7.152;2023-02-15T06:26:49;21.80;;;12.00;;
4290;SDS011;2159;50.906;7.152;2023-02-15T06:29:16;21.90;;;12.40;;
4290;SDS011;2159;50.906;7.152;2023-02-15T06:31:43;19.97;;;12.27;;
4290;SDS011;2159;50.906;7.152;2023-02-15T06:34:11;19.60;;;11.50;;
4290;SDS011;2159;50.906;7.152;2023-02-15T06:36:38;22.80;;;12.40;;
4290;SDS011;2159;50.906;7.152;2023-02-15T06:39:06;20.20;;;11.97;;
4290;SDS011;2159;50.906;7.152;2023-02-15T06:41:34;24.20;;;12.77;;
4290;SDS011;2159;50.906;7.152;2023-02-15T06:44:02;20.40;;;11.17;;
4290;SDS011;2159;50.906;7.152;2023-02-15T06:46:30;17.23;;;10.83;;
4290;SDS011;2159;50.906;7.152;2023-02-15T06:48:58;20.97;;;12.60;;
4290;SDS011;2159;50.906;7.152;2023-02-15T06:51:25;23.37;;;12.33;;
4290;SDS011;2159;50.906;7.152;2023-02-15T06:53:52;20.27;;;12.67;;
4290;SDS011;2159;50.906;7.152;2023-02-15T06:56:20;20.17;;;12.10;;
4290;SDS011;2159;50.906;7.152;2023-02-15T06:58:47;21.67;;;12.53;;
4290;SDS011;2159;50.906;7.152;2023-02-15T07:01:17;24.60;;;12.63;;
4290;SDS011;2159;50.906;7.152;2023-02-15T07:03:44;21.40;;;11.80;;
4290;SDS011;2159;50.906;7.152;2023-02-15T07:06:12;17.50;;;11.17;;
4290;SDS011;2159;50.906;7.152;2023-02-15T07:08:39;20.23;;;11.80;;
4290;SDS011;2159;50.906;7.152;2023-02-15T07:11:07;18.93;;;11.30;;
4290;SDS011;2159;50.906;7.152;2023-02-15T07:13:52;22.03;;;12.10;;
4290;SDS011;2159;50.906;7.152;2023-02-15T07:16:21;18.93;;;11.83;;
4290;SDS011;2159;50.906;7.152;2023-02-15T07:18:48;22.40;;;12.53;;
4290;SDS011;2159;50.906;7.152;2023-02-15T07:21:16;22.83;;;13.10;;
4290;SDS011;2159;50.906;7.152;2023-02-15T07:23:43;20.90;;;12.70;;
4290;SDS011;2159;50.906;7.152;2023-02-15T07:26:11;19.60;;;11.63;;
4290;SDS011;2159;50.906;7.152;2023-02-15T07:28:38;20.43;;;11.90;;
4290;SDS011;2159;50.906;7.152;2023-02-15T07:31:06;20.77;;;11.83;;
4290;SDS011;2159;50.906;7.152;2023-02-15T07:33:35;23.37;;;12.13;;
4290;SDS011;2159;50.906;7.152;2023-02-15T07:36:03;18.43;;;11.10;;
4290;SDS011;2159;50.906;7.152;2023-02-15T07:38:31;19.57;;;12.03;;
4290;SDS011;2159;50.906;7.152;2023-02-15T07:40:59;21.83;;;12.57;;
4290;SDS011;2159;50.906;7.152;2023-02-15T07:43:27;19.00;;;11.50;;
4290;SDS011;2159;50.906;7.152;2023-02-15T07:45:58;20.40;;;11.53;;
4290;SDS011;2159;50.906;7.152;2023-02-15T07:48:26;19.87;;;11.80;;
4290;SDS011;2159;50.906;7.152;2023-02-15T07:50:56;18.23;;;11.50;;
4290;SDS011;2159;50.906;7.152;2023-02-15T07:53:25;19.50;;;11.03;;
4290;SDS011;2159;50.906;7.152;2023-02-15T07:55:52;18.63;;;11.47;;
4290;SDS011;2159;50.906;7.152;2023-02-15T07:58:21;16.83;;;10.20;;
4290;SDS011;2159;50.906;7.152;2023-02-15T08:01:08;18.20;;;11.60;;
4290;SDS011;2159;50.906;7.152;2023-02-15T08:03:36;17.30;;;10.73;;
4290;SDS011;2159;50.906;7.152;2023-02-15T08:06:05;19.13;;;11.60;;
4290;SDS011;2159;50.906;7.152;2023-02-15T08:08:33;18.00;;;11.70;;
4290;SDS011;2159;50.906;7.152;2023-02-15T08:11:02;20.70;;;11.90;;
4290;SDS011;2159;50.906;7.152;2023-02-15T08:13:48;21.13;;;12.47;;
4290;SDS011;2159;50.906;7.152;2023-02-15T08:16:27;20.93;;;11.97;;
4290;SDS011;2159;50.906;7.152;2023-02-15T08:18:55;19.33;;;12.00;;
4290;SDS011;2159;50.906;7.152;2023-02-15T08:21:26;18.23;;;10.80;;
4290;SDS011;2159;50.906;7.152;2023-02-15T08:23:54;18.90;;;11.50;;
4290;SDS011;2159;50.906;7.152;2023-02-15T08:26:21;22.00;;;10.60;;
4290;SDS011;2159;50.906;7.152;2023-02-15T08:28:50;16.40;;;10.20;;
4290;SDS011;2159;50.906;7.152;2023-02-15T08:31:18;25.00;;;11.60;;
4290;SDS011;2159;50.906;7.152;2023-02-15T08:33:46;19.80;;;11.30;;
4290;SDS011;2159;50.906;7.152;2023-02-15T08:36:14;16.77;;;10.60;;
4290;SDS011;2159;50.906;7.152;2023-02-15T08:38:43;18.60;;;11.47;;
4290;SDS011;2159;50.906;7.152;2023-02-15T08:41:11;16.93;;;10.13;;
4290;SDS011;2159;50.906;7.152;2023-02-15T08:43:39;17.37;;;10.57;;
4290;SDS011;2159;50.906;7.152;2023-02-15T08:46:06;16.10;;;10.13;;
4290;SDS011;2159;50.906;7.152;2023-02-15T08:48:34;16.30;;;10.30;;
4290;SDS011;2159;50.906;7.152;2023-02-15T08:51:06;18.83;;;11.40;;
4290;SDS011;2159;50.906;7.152;2023-02-15T08:53:34;17.00;;;10.50;;
4290;SDS011;2159;50.906;7.152;2023-02-15T08:56:03;18.70;;;10.93;;
4290;SDS011;2159;50.906;7.152;2023-02-15T08:58:30;24.07;;;12.57;;
4290;SDS011;2159;50.906;7.152;2023-02-15T09:00:58;28.63;;;14.33;;
4290;SDS011;2159;50.906;7.152;2023-02-15T09:03:26;17.60;;;10.63;;
4290;SDS011;2159;50.906;7.152;2023-02-15T09:05:56;17.00;;;10.10;;
4290;SDS011;2159;50.906;7.152;2023-02-15T09:08:24;22.30;;;12.60;;
4290;SDS011;2159;50.906;7.152;2023-02-15T09:10:51;36.20;;;16.70;;
4290;SDS011;2159;50.906;7.152;2023-02-15T09:13:20;15.60;;;10.30;;
4290;SDS011;2159;50.906;7.152;2023-02-15T09:15:48;16.30;;;10.30;;
4290;SDS011;2159;50.906;7.152;2023-02-15T09:18:15;17.67;;;11.43;;
4290;SDS011;2159;50.906;7.152;2023-02-15T09:20:43;20.60;;;12.53;;
4290;SDS011;2159;50.906;7.152;2023-02-15T09:23:11;19.17;;;11.43;;
4290;SDS011;2159;50.906;7.152;2023-02-15T09:25:52;18.33;;;11.20;;
4290;SDS011;2159;50.906;7.152;2023-02-15T09:28:21;18.50;;;12.37;;
4290;SDS011;2159;50.906;7.152;2023-02-15T09:30:48;14.20;;;9.17;;
4290;SDS011;2159;50.906;7.152;2023-02-15T09:33:16;14.83;;;9.50;;
4290;SDS011;2159;50.906;7.152;2023-02-15T09:35:43;17.60;;;9.67;;
4290;SDS011;2159;50.906;7.152;2023-02-15T09:38:10;15.67;;;9.50;;
4290;SDS011;2159;50.906;7.152;2023-02-15T09:40:39;14.23;;;9.10;;
4290;SDS011;2159;50.906;7.152;2023-02-15T09:43:22;16.77;;;9.47;;
4290;SDS011;2159;50.906;7.152;2023-02-15T09:45:56;13.83;;;9.03;;
4290;SDS011;2159;50.906;7.152;2023-02-15T09:48:29;14.07;;;9.13;;
4290;SDS011;2159;50.906;7.152;2023-02-15T09:51:08;14.70;;;8.90;;
4290;SDS011;2159;50.906;7.152;2023-02-15T09:53:42;14.53;;;8.93;;
4290;SDS011;2159;50.906;7.152;2023-02-15T09:56:14;12.90;;;8.43;;
4290;SDS011;2159;50.906;7.152;2023-02-15T09:58:49;14.43;;;8.87;;
4290;SDS011;2159;50.906;7.152;2023-02-15T10:01:20;13.10;;;7.93;;
4290;SDS011;2159;50.906;7.152;2023-02-15T10:04:07;13.53;;;8.83;;
4290;SDS011;2159;50.906;7.152;2023-02-15T10:06:40;14.13;;;8.43;;
4290;SDS011;2159;50.906;7.152;2023-02-15T10:12:03;15.60;;;9.67;;
4290;SDS011;2159;50.906;7.152;2023-02-15T10:14:44;14.23;;;9.00;;
4290;SDS011;2159;50.906;7.152;2023-02-15T10:17:18;11.53;;;8.40;;
4290;SDS011;2159;50.906;7.152;2023-02-15T10:19:51;13.60;;;8.70;;
4290;SDS011;2159;50.906;7.152;2023-02-15T10:22:27;13.07;;;8.73;;
4290;SDS011;2159;50.906;7.152;2023-02-15T10:25:03;12.67;;;8.87;;
4290;SDS011;2159;50.906;7.152;2023-02-15T10:27:39;12.07;;;8.50;;
4290;SDS011;2159;50.906;7.152;2023-02-15T10:30:11;13.10;;;8.30;;
4290;SDS011;2159;50.906;7.152;2023-02-15T10:32:40;14.60;;;7.90;;
4290;SDS011;2159;50.906;7.152;2023-02-15T10:35:10;11.83;;;7.90;;
4290;SDS011;2159;50.906;7.152;2023-02-15T10:40:24;12.20;;;8.40;;
4290;SDS011;2159;50.906;7.152;2023-02-15T10:43:08;12.20;;;8.43;;
4290;SDS011;2159;50.906;7.152;2023-02-15T10:45:43;12.47;;;8.10;;
4290;SDS011;2159;50.906;7.152;2023-02-15T10:51:03;11.90;;;8.17;;
4290;SDS011;2159;50.906;7.152;2023-02-15T10:53:42;10.80;;;8.20;;
4290;SDS011;2159;50.906;7.152;2023-02-15T10:56:15;15.53;;;9.30;;
4290;SDS011;2159;50.906;7.152;2023-02-15T10:58:51;12.90;;;8.97;;
4290;SDS011;2159;50.906;7.152;2023-02-15T11:01:24;13.73;;;9.13;;
4290;SDS011;2159;50.906;7.152;2023-02-15T11:03:59;13.17;;;8.97;;
4290;SDS011;2159;50.906;7.152;2023-02-15T11:06:30;14.27;;;9.07;;
4290;SDS011;2159;50.906;7.152;2023-02-15T11:08:59;14.33;;;9.37;;
4290;SDS011;2159;50.906;7.152;2023-02-15T11:11:29;11.23;;;8.43;;
4290;SDS011;2159;50.906;7.152;2023-02-15T11:13:58;13.50;;;9.10;;
4290;SDS011;2159;50.906;7.152;2023-02-15T11:16:29;14.13;;;9.27;;
4290;SDS011;2159;50.906;7.152;2023-02-15T11:18:59;12.70;;;9.10;;
4290;SDS011;2159;50.906;7.152;2023-02-15T11:21:27;13.20;;;9.10;;
4290;SDS011;2159;50.906;7.152;2023-02-15T11:23:55;13.10;;;9.70;;
4290;SDS011;2159;50.906;7.152;2023-02-15T11:26:24;11.90;;;8.50;;
4290;SDS011;2159;50.906;7.152;2023-02-15T11:28:56;12.93;;;8.50;;
4290;SDS011;2159;50.906;7.152;2023-02-15T11:31:24;13.37;;;8.87;;
4290;SDS011;2159;50.906;7.152;2023-02-15T11:33:55;14.33;;;9.07;;
4290;SDS011;2159;50.906;7.152;2023-02-15T11:36:24;11.20;;;7.97;;
4290;SDS011;2159;50.906;7.152;2023-02-15T11:38:54;13.03;;;8.87;;
4290;SDS011;2159;50.906;7.152;2023-02-15T11:41:24;12.90;;;9.13;;
4290;SDS011;2159;50.906;7.152;2023-02-15T11:43:55;13.10;;;9.40;;
4290;SDS011;2159;50.906;7.152;2023-02-15T11:46:24;13.60;;;8.73;;
4290;SDS011;2159;50.906;7.152;2023-02-15T11:48:51;13.10;;;8.80;;
4290;SDS011;2159;50.906;7.152;2023-02-15T11:51:20;12.00;;;8.50;;
4290;SDS011;2159;50.906;7.152;2023-02-15T11:53:49;13.30;;;8.90;;
4290;SDS011;2159;50.906;7.152;2023-02-15T11:56:18;11.50;;;8.50;;
4290;SDS011;2159;50.906;7.152;2023-02-15T11:58:47;13.70;;;8.83;;
4290;SDS011;2159;50.906;7.152;2023-02-15T12:01:16;13.07;;;8.43;;
4290;SDS011;2159;50.906;7.152;2023-02-15T12:03:45;13.97;;;8.90;;
4290;SDS011;2159;50.906;7.152;2023-02-15T12:06:16;12.87;;;9.67;;
4290;SDS011;2159;50.906;7.152;2023-02-15T12:08:46;13.23;;;8.83;;
4290;SDS011;2159;50.906;7.152;2023-02-15T12:11:17;13.80;;;9.47;;
4290;SDS011;2159;50.906;7.152;2023-02-15T12:13:56;11.27;;;8.53;;
4290;SDS011;2159;50.906;7.152;2023-02-15T12:16:24;13.27;;;9.03;;
4290;SDS011;2159;50.906;7.152;2023-02-15T12:22:18;12.97;;;8.53;;
4290;SDS011;2159;50.906;7.152;2023-02-15T12:24:48;12.20;;;8.37;;
4290;SDS011;2159;50.906;7.152;2023-02-15T12:34:16;14.50;;;8.60;;
4290;SDS011;2159;50.906;7.152;2023-02-15T12:36:46;15.07;;;9.43;;
4290;SDS011;2159;50.906;7.152;2023-02-15T12:39:18;13.77;;;9.40;;
4290;SDS011;2159;50.906;7.152;2023-02-15T12:41:56;13.30;;;8.60;;
4290;SDS011;2159;50.906;7.152;2023-02-15T12:44:24;14.23;;;9.70;;
4290;SDS011;2159;50.906;7.152;2023-02-15T12:46:55;15.27;;;10.23;;
4290;SDS011;2159;50.906;7.152;2023-02-15T12:49:24;14.60;;;10.10;;
4290;SDS011;2159;50.906;7.152;2023-02-15T12:51:52;13.50;;;9.30;;
4290;SDS011;2159;50.906;7.152;2023-02-15T12:54:34;14.00;;;9.33;;
4290;SDS011;2159;50.906;7.152;2023-02-15T12:59:51;13.57;;;9.30;;
4290;SDS011;2159;50.906;7.152;2023-02-15T13:02:21;12.73;;;8.90;;
4290;SDS011;2159;50.906;7.152;2023-02-15T13:04:49;13.90;;;9.47;;
4290;SDS011;2159;50.906;7.152;2023-02-15T13:10:52;13.57;;;9.30;;
4290;SDS011;2159;50.906;7.152;2023-02-15T13:13:21;14.33;;;9.70;;
4290;SDS011;2159;50.906;7.152;2023-02-15T13:15:51;13.23;;;8.83;;
4290;SDS011;2159;50.906;7.152;2023-02-15T13:18:25;12.10;;;8.70;;
4290;SDS011;2159;50.906;7.152;2023-02-15T13:20:54;14.30;;;9.40;;
4290;SDS011;2159;50.906;7.152;2023-02-15T13:23:25;16.67;;;10.00;;
4290;SDS011;2159;50.906;7.152;2023-02-15T13:25:54;14.87;;;9.13;;
4290;SDS011;2159;50.906;7.152;2023-02-15T13:28:23;14.77;;;9.43;;
4290;SDS011;2159;50.906;7.152;2023-02-15T13:30:53;15.93;;;9.53;;
4290;SDS011;2159;50.906;7.152;2023-02-15T13:33:22;14.00;;;9.30;;
4290;SDS011;2159;50.906;7.152;2023-02-15T13:35:56;13.07;;;8.80;;
4290;SDS011;2159;50.906;7.152;2023-02-15T13:41:11;13.60;;;9.33;;
4290;SDS011;2159;50.906;7.152;2023-02-15T13:43:41;15.20;;;10.70;;
4290;SDS011;2159;50.906;7.152;2023-02-15T13:46:17;14.07;;;9.40;;
4290;SDS011;2159;50.906;7.152;2023-02-15T13:48:48;15.17;;;9.63;;
4290;SDS011;2159;50.906;7.152;2023-02-15T13:51:21;13.97;;;9.77;;
4290;SDS011;2159;50.906;7.152;2023-02-15T13:53:53;14.60;;;9.70;;
4290;SDS011;2159;50.906;7.152;2023-02-15T13:56:26;14.10;;;9.77;;
4290;SDS011;2159;50.906;7.152;2023-02-15T13:58:59;16.50;;;10.07;;
4290;SDS011;2159;50.906;7.152;2023-02-15T14:01:34;16.53;;;10.07;;
4290;SDS011;2159;50.906;7.152;2023-02-15T14:06:48;16.20;;;10.30;;
4290;SDS011;2159;50.906;7.152;2023-02-15T14:09:20;13.57;;;9.70;;
4290;SDS011;2159;50.906;7.152;2023-02-15T14:11:53;14.40;;;9.20;;
4290;SDS011;2159;50.906;7.152;2023-02-15T14:14:31;14.67;;;9.33;;
4290;SDS011;2159;50.906;7.152;2023-02-15T14:17:10;16.47;;;10.10;;
4290;SDS011;2159;50.906;7.152;2023-02-15T14:19:39;16.53;;;9.50;;
4290;SDS011;2159;50.906;7.152;2023-02-15T14:22:10;14.73;;;10.17;;
4290;SDS011;2159;50.906;7.152;2023-02-15T14:24:42;14.77;;;9.20;;
4290;SDS011;2159;50.906;7.152;2023-02-15T14:27:13;15.63;;;9.80;;
4290;SDS011;2159;50.906;7.152;2023-02-15T14:29:48;18.47;;;10.03;;
4290;SDS011;2159;50.906;7.152;2023-02-15T14:32:18;15.90;;;9.40;;
4290;SDS011;2159;50.906;7.152;2023-02-15T14:34:48;13.00;;;9.03;;
4290;SDS011;2159;50.906;7.152;2023-02-15T14:37:19;18.00;;;10.83;;
4290;SDS011;2159;50.906;7.152;2023-02-15T14:39:50;13.80;;;9.47;;
4290;SDS011;2159;50.906;7.152;2023-02-15T14:42:37;15.10;;;10.27;;
4290;SDS011;2159;50.906;7.152;2023-02-15T14:45:14;17.20;;;10.10;;
4290;SDS011;2159;50.906;7.152;2023-02-15T14:47:46;17.00;;;10.30;;
4290;SDS011;2159;50.906;7.152;2023-02-15T14:53:32;14.10;;;9.50;;
4290;SDS011;2159;50.906;7.152;2023-02-15T14:56:06;14.90;;;9.53;;
4290;SDS011;2159;50.906;7.152;2023-02-15T14:58:34;14.60;;;9.87;;
4290;SDS011;2159;50.906;7.152;2023-02-15T15:01:03;15.43;;;10.40;;
4290;SDS011;2159;50.906;7.152;2023-02-15T15:03:33;17.80;;;9.90;;
4290;SDS011;2159;50.906;7.152;2023-02-15T15:06:02;18.40;;;10.73;;
4290;SDS011;2159;50.906;7.152;2023-02-15T15:08:32;13.87;;;8.70;;
4290;SDS011;2159;50.906;7.152;2023-02-15T15:14:07;13.60;;;9.50;;
4290;SDS011;2159;50.906;7.152;2023-02-15T15:16:50;14.33;;;9.20;;
4290;SDS011;2159;50.906;7.152;2023-02-15T15:22:18;15.63;;;9.97;;
4290;SDS011;2159;50.906;7.152;2023-02-15T15:24:50;15.93;;;9.93;;
4290;SDS011;2159;50.906;7.152;2023-02-15T15:27:37;14.03;;;9.90;;
4290;SDS011;2159;50.906;7.152;2023-02-15T15:32:48;14.73;;;10.20;;
4290;SDS011;2159;50.906;7.152;2023-02-15T15:35:17;13.80;;;9.27;;
4290;SDS011;2159;50.906;7.152;2023-02-15T15:38:11;14.20;;;9.90;;
4290;SDS011;2159;50.906;7.152;2023-02-15T15:40:46;16.63;;;9.60;;
4290;SDS011;2159;50.906;7.152;2023-02-15T15:43:30;13.83;;;10.37;;
4290;SDS011;2159;50.906;7.152;2023-02-15T15:46:08;17.13;;;10.83;;
4290;SDS011;2159;50.906;7.152;2023-02-15T15:48:40;14.37;;;9.83;;
4290;SDS011;2159;50.906;7.152;2023-02-15T15:51:10;15.97;;;10.07;;
4290;SDS011;2159;50.906;7.152;2023-02-15T15:53:41;15.37;;;9.83;;
4290;SDS011;2159;50.906;7.152;2023-02-15T15:56:12;14.87;;;10.03;;
4290;SDS011;2159;50.906;7.152;2023-02-15T15:58:42;16.20;;;10.00;;